createdAt,value
2019-02-11T00:00:45.104Z,78.49
2019-02-11T00:03:14.342Z,78.23
2019-02-11T00:05:43.575Z,78.11
2019-02-11T00:08:12.811Z,78.20
2019-02-11T00:10:42.045Z,78.28
2019-02-11T00:13:11.272Z,77.80
2019-02-11T00:15:40.473Z,77.69
2019-02-11T00:18:09.730Z,77.68
2019-02-11T00:20:38.986Z,77.36
2019-02-11T00:23:08.217Z,76.93
2019-02-11T00:25:37.454Z,76.79
2019-02-11T00:28:06.657Z,76.96
2019-02-11T00:30:35.923Z,76.93
2019-02-11T00:33:05.125Z,76.74
2019-02-11T00:35:34.367Z,76.46
2019-02-11T00:38:03.644Z,76.45
2019-02-11T00:40:32.877Z,75.92
2019-02-11T00:43:02.078Z,76.06
2019-02-11T00:45:31.310Z,75.73
2019-02-11T00:48:00.775Z,75.32
2019-02-11T00:50:29.986Z,75.22
2019-02-11T00:52:59.193Z,75.35
2019-02-11T00:55:28.429Z,74.98
2019-02-11T00:57:57.644Z,74.48
2019-02-11T01:00:26.930Z,74.60
2019-02-11T01:02:56.153Z,74.41
2019-02-11T01:05:25.359Z,74.46
2019-02-11T01:07:54.599Z,73.72
2019-02-11T01:10:23.869Z,73.59
2019-02-11T01:12:53.118Z,73.31
2019-02-11T01:15:22.359Z,73.64
2019-02-11T01:17:51.603Z,73.18
2019-02-11T01:20:20.878Z,73.44
2019-02-11T01:22:50.086Z,72.51
2019-02-11T01:25:19.302Z,72.84
2019-02-11T01:27:48.519Z,72.97
2019-02-11T01:30:17.741Z,73.05
2019-02-11T01:32:46.956Z,73.13
2019-02-11T01:35:16.177Z,73.04
2019-02-11T01:37:45.405Z,72.49
2019-02-11T01:40:14.641Z,72.42
2019-02-11T01:42:43.850Z,72.64
2019-02-11T01:45:13.247Z,72.61
2019-02-11T01:47:42.461Z,72.54
2019-02-11T01:50:13.124Z,72.03
2019-02-11T01:52:42.321Z,72.36
2019-02-11T01:55:11.554Z,72.54
2019-02-11T01:57:40.850Z,72.23
2019-02-11T02:00:13.473Z,71.97
2019-02-11T02:02:42.706Z,72.27
2019-02-11T02:05:11.956Z,72.17
2019-02-11T02:07:41.158Z,72.54
2019-02-11T02:10:12.355Z,72.43
2019-02-11T02:12:41.577Z,72.22
2019-02-11T02:15:11.345Z,72.69
2019-02-11T02:17:40.555Z,73.06
2019-02-11T02:20:11.487Z,73.48
2019-02-11T02:22:40.689Z,74.10
2019-02-11T02:25:09.926Z,74.36
2019-02-11T02:27:39.151Z,74.87
2019-02-11T02:30:09.308Z,75.16
2019-02-11T02:32:38.519Z,75.65
2019-02-11T02:35:07.878Z,75.86
2019-02-11T02:37:37.157Z,76.00
2019-02-11T02:40:06.821Z,76.63
2019-02-11T02:42:36.057Z,76.92
2019-02-11T02:45:05.742Z,77.68
2019-02-11T02:51:15.826Z,78.64
2019-02-11T02:53:45.023Z,78.77
2019-02-11T02:56:14.248Z,78.86
2019-02-11T02:58:43.481Z,78.67
2019-02-11T03:01:12.716Z,78.82
2019-02-11T03:03:41.828Z,78.78
2019-02-11T03:06:11.069Z,78.71
2019-02-11T03:08:40.264Z,78.72
2019-02-11T03:11:09.534Z,78.55
2019-02-11T03:13:38.758Z,78.58
2019-02-11T03:16:07.991Z,78.54
2019-02-11T03:18:37.184Z,78.08
2019-02-11T03:21:06.407Z,78.10
2019-02-11T03:23:35.617Z,77.54
2019-02-11T03:26:04.827Z,77.92
2019-02-11T03:28:34.032Z,78.10
2019-02-11T03:31:03.262Z,78.11
2019-02-11T03:33:32.562Z,77.85
2019-02-11T03:36:01.804Z,77.61
2019-02-11T03:38:31.017Z,77.49
2019-02-11T03:44:28.314Z,77.48
2019-02-11T03:46:57.539Z,77.85
2019-02-11T03:49:26.763Z,77.97
2019-02-11T03:51:55.960Z,78.00
2019-02-11T03:54:25.176Z,77.92
2019-02-11T03:56:54.411Z,77.98
2019-02-11T03:59:23.619Z,77.74
2019-02-11T04:01:52.873Z,77.71
2019-02-11T04:04:22.442Z,77.11
2019-02-11T04:06:51.652Z,77.07
2019-02-11T04:09:20.945Z,77.36
2019-02-11T04:11:50.209Z,77.25
2019-02-11T04:14:24.965Z,77.66
2019-02-11T04:16:50.352Z,77.70
2019-02-11T04:20:10.846Z,77.66
2019-02-11T04:22:40.089Z,77.60
2019-02-11T04:25:09.291Z,77.53
2019-02-11T04:27:38.492Z,77.81
2019-02-11T04:30:08.194Z,78.00
2019-02-11T04:32:37.440Z,77.47
2019-02-11T04:35:06.689Z,77.37
2019-02-11T04:37:35.918Z,77.41
2019-02-11T04:40:05.389Z,77.40
2019-02-11T04:42:34.617Z,77.60
2019-02-11T04:46:00.790Z,77.06
2019-02-11T04:48:30.025Z,77.21
2019-02-11T04:50:59.415Z,77.28
2019-02-11T04:53:28.656Z,77.52
2019-02-11T04:55:57.876Z,77.56
2019-02-11T04:58:27.105Z,77.09
2019-02-11T05:00:56.373Z,76.89
2019-02-11T05:03:25.646Z,76.50
2019-02-11T05:05:54.942Z,76.11
2019-02-11T05:08:24.249Z,75.84
2019-02-11T05:10:53.508Z,75.39
2019-02-11T05:13:22.753Z,74.99
2019-02-11T05:15:52.015Z,74.76
2019-02-11T05:18:21.302Z,74.89
2019-02-11T05:20:50.523Z,74.85
2019-02-11T05:23:19.782Z,74.31
2019-02-11T05:25:49.034Z,74.33
2019-02-11T05:28:18.306Z,74.15
2019-02-11T05:30:47.648Z,73.92
2019-02-11T05:33:16.966Z,73.77
2019-02-11T05:35:46.214Z,73.77
2019-02-11T05:38:15.508Z,73.63
2019-02-11T05:40:44.812Z,73.64
2019-02-11T05:43:14.447Z,73.86
2019-02-11T05:45:43.687Z,73.15
2019-02-11T05:48:12.987Z,72.93
2019-02-11T05:50:42.213Z,72.84
2019-02-11T05:53:11.474Z,72.65
2019-02-11T05:55:40.740Z,73.41
2019-02-11T05:58:10.034Z,72.89
2019-02-11T06:00:39.273Z,73.35
2019-02-11T06:03:09.587Z,73.61
2019-02-11T06:05:38.872Z,72.61
2019-02-11T06:08:08.194Z,72.05
2019-02-11T06:10:37.442Z,71.17
2019-02-11T06:13:06.712Z,70.44
2019-02-11T06:15:35.966Z,69.73
2019-02-11T06:18:05.238Z,69.40
2019-02-11T06:20:34.528Z,69.70
2019-02-11T06:23:03.780Z,69.60
2019-02-11T06:25:33.000Z,69.22
2019-02-11T06:28:02.258Z,68.70
2019-02-11T06:30:31.487Z,68.13
2019-02-11T06:33:00.761Z,67.33
2019-02-11T06:35:30.034Z,67.39
2019-02-11T06:37:59.338Z,69.77
2019-02-11T06:40:28.620Z,68.59
2019-02-11T06:42:57.872Z,67.91
2019-02-11T06:45:27.173Z,67.89
2019-02-11T06:47:56.500Z,67.85
2019-02-11T06:50:25.767Z,67.97
2019-02-11T06:52:55.064Z,67.71
2019-02-11T06:55:24.305Z,67.72
2019-02-11T06:57:56.604Z,67.94
2019-02-11T07:00:25.877Z,68.05
2019-02-11T07:02:55.170Z,67.90
2019-02-11T07:05:24.430Z,68.08
2019-02-11T07:11:21.799Z,68.44
2019-02-11T07:13:53.854Z,68.53
2019-02-11T07:16:23.083Z,68.25
2019-02-11T07:18:52.309Z,67.89
2019-02-11T07:21:22.420Z,67.75
2019-02-11T07:23:51.741Z,68.11
2019-02-11T07:26:22.133Z,67.71
2019-02-11T07:28:51.384Z,67.06
2019-02-11T07:31:20.701Z,66.94
2019-02-11T07:33:49.987Z,66.44
2019-02-11T07:36:20.418Z,66.94
2019-02-11T07:38:49.673Z,66.83
2019-02-11T07:41:20.553Z,67.09
2019-02-11T07:44:00.927Z,67.05
2019-02-11T07:46:52.763Z,66.92
2019-02-11T07:49:22.035Z,66.75
2019-02-11T07:51:51.261Z,66.96
2019-02-11T07:54:20.541Z,66.91
2019-02-11T07:56:49.820Z,66.76
2019-02-11T07:59:19.108Z,66.60
2019-02-11T08:01:48.405Z,66.18
2019-02-11T08:04:17.853Z,66.17
2019-02-11T08:06:47.144Z,65.63
2019-02-11T08:12:44.613Z,64.28
2019-02-11T08:15:13.911Z,64.56
2019-02-11T08:17:43.174Z,64.96
2019-02-11T08:20:12.935Z,65.29
2019-02-11T08:26:10.382Z,65.26
2019-02-11T08:28:39.635Z,64.71
2019-02-11T08:31:26.972Z,65.20
2019-02-11T08:33:56.279Z,65.03
2019-02-11T08:36:25.568Z,64.80
2019-02-11T08:38:54.867Z,64.73
2019-02-11T08:41:24.101Z,64.65
2019-02-11T08:43:53.381Z,64.50
2019-02-11T08:46:22.618Z,63.75
2019-02-11T08:48:51.900Z,63.81
2019-02-11T08:51:21.689Z,65.26
2019-02-11T08:53:50.941Z,63.42
2019-02-11T08:56:20.214Z,63.01
2019-02-11T08:58:49.613Z,62.92
2019-02-11T09:01:18.896Z,62.61
2019-02-11T09:03:48.199Z,62.62
2019-02-11T09:06:18.091Z,62.07
2019-02-11T09:08:47.511Z,62.25
2019-02-11T09:11:19.541Z,62.01
2019-02-11T09:13:48.795Z,62.00
2019-02-11T09:16:18.122Z,62.14
2019-02-11T09:18:49.730Z,61.61
2019-02-11T09:21:20.007Z,61.58
2019-02-11T09:27:18.006Z,61.24
2019-02-11T09:30:35.322Z,61.04
2019-02-11T09:33:59.406Z,61.10
2019-02-11T09:36:28.679Z,61.32
2019-02-11T09:38:57.985Z,61.58
2019-02-11T09:42:03.497Z,61.42
2019-02-11T09:44:32.799Z,60.96
2019-02-11T09:47:02.087Z,61.44
2019-02-11T09:53:00.751Z,61.78
2019-02-11T09:55:31.642Z,62.31
2019-02-11T09:58:00.916Z,62.12
2019-02-11T10:00:30.297Z,62.39
2019-02-11T10:02:59.542Z,62.56
2019-02-11T10:05:28.903Z,62.23
2019-02-11T10:07:58.189Z,62.27
2019-02-11T10:10:27.636Z,62.37
2019-02-11T10:12:56.905Z,62.75
2019-02-11T10:15:26.168Z,62.89
2019-02-11T10:17:55.436Z,62.90
2019-02-11T10:20:24.716Z,62.83
2019-02-11T10:22:54.026Z,62.52
2019-02-11T10:25:24.918Z,62.92
2019-02-11T10:27:56.142Z,62.94
2019-02-11T10:30:25.453Z,62.99
2019-02-11T10:32:54.713Z,63.18
2019-02-11T10:35:24.014Z,63.10
2019-02-11T10:37:53.298Z,62.88
2019-02-11T10:40:22.681Z,62.98
2019-02-11T10:42:51.992Z,63.02
2019-02-11T10:45:21.579Z,62.93
2019-02-11T10:47:51.001Z,62.83
2019-02-11T10:50:20.343Z,62.55
2019-02-11T10:52:49.716Z,62.14
2019-02-11T10:55:19.166Z,61.73
2019-02-11T10:57:48.454Z,62.52
2019-02-11T11:00:22.188Z,63.86
2019-02-11T11:02:51.639Z,61.76
2019-02-11T11:05:21.016Z,62.04
2019-02-11T11:07:50.259Z,61.97
2019-02-11T11:10:22.878Z,62.37
2019-02-11T11:12:52.359Z,62.76
2019-02-11T11:15:23.374Z,62.12
2019-02-11T11:17:52.675Z,60.57
2019-02-11T11:20:22.009Z,60.62
2019-02-11T11:22:51.325Z,60.32
2019-02-11T11:25:20.767Z,60.75
2019-02-11T11:28:08.269Z,60.04
2019-02-11T11:30:38.940Z,59.06
2019-02-11T11:33:08.551Z,57.99
2019-02-11T11:35:37.829Z,57.14
2019-02-11T11:38:07.166Z,57.24
2019-02-11T11:40:36.401Z,57.80
2019-02-11T11:43:05.834Z,57.81
2019-02-11T11:45:35.409Z,57.67
2019-02-11T11:48:05.929Z,57.38
2019-02-11T11:50:35.194Z,57.22
2019-02-11T11:53:05.075Z,56.53
2019-02-11T11:55:34.323Z,58.16
2019-02-11T11:58:05.839Z,55.42
2019-02-11T12:00:35.417Z,56.70
2019-02-11T12:03:05.836Z,57.17
2019-02-11T12:05:35.488Z,57.63
2019-02-11T12:08:04.890Z,58.14
2019-02-11T12:10:34.169Z,58.10
2019-02-11T12:13:21.737Z,58.42
2019-02-11T12:15:37.695Z,58.56
2019-02-11T12:18:07.031Z,59.13
2019-02-11T12:20:36.363Z,59.71
2019-02-11T12:23:05.667Z,60.24
2019-02-11T12:25:34.992Z,61.07
2019-02-11T12:28:04.236Z,61.02
2019-02-11T12:30:33.592Z,61.60
2019-02-11T12:33:02.834Z,61.93
2019-02-11T12:35:32.122Z,62.12
2019-02-11T12:38:01.426Z,62.60
2019-02-11T12:40:30.771Z,62.05
2019-02-11T12:43:01.846Z,60.22
2019-02-11T12:45:33.007Z,60.31
2019-02-11T12:48:02.326Z,59.16
2019-02-11T12:50:31.654Z,58.69
2019-02-11T12:53:01.122Z,58.58
2019-02-11T12:55:30.437Z,58.79
2019-02-11T12:57:59.732Z,58.72
2019-02-11T13:00:29.034Z,58.28
2019-02-11T13:02:58.334Z,57.26
2019-02-11T13:05:44.367Z,56.61
2019-02-11T13:07:58.582Z,56.47
2019-02-11T13:10:28.280Z,56.28
2019-02-11T13:12:57.581Z,55.81
2019-02-11T13:15:56.551Z,55.88
2019-02-11T13:17:59.247Z,54.36
2019-02-11T13:20:28.600Z,52.93
2019-02-11T13:22:57.859Z,52.23
2019-02-11T13:25:28.139Z,52.89
2019-02-11T13:27:57.452Z,53.96
2019-02-11T13:30:26.771Z,54.17
2019-02-11T13:32:56.030Z,54.61
2019-02-11T13:35:25.287Z,54.76
2019-02-11T13:37:56.099Z,53.73
2019-02-11T13:40:25.852Z,53.85
2019-02-11T13:43:07.604Z,54.07
2019-02-11T13:45:36.862Z,54.72
2019-02-11T13:48:33.834Z,54.73
2019-02-11T13:51:00.872Z,54.65
2019-02-11T13:53:30.290Z,55.15
2019-02-11T13:56:04.673Z,55.59
2019-02-11T13:58:31.740Z,55.86
2019-02-11T14:01:01.057Z,55.77
2019-02-11T14:03:30.344Z,56.09
2019-02-11T14:05:59.636Z,55.91
2019-02-11T14:08:28.912Z,55.69
2019-02-11T14:10:58.327Z,55.24
2019-02-11T14:13:27.631Z,55.32
2019-02-11T14:15:56.931Z,55.95
2019-02-11T14:21:54.562Z,55.60
2019-02-11T14:24:23.826Z,55.95
2019-02-11T14:26:53.115Z,56.12
2019-02-11T14:29:22.733Z,56.31
2019-02-11T14:31:52.043Z,55.69
2019-02-11T14:34:21.503Z,55.83
2019-02-11T14:36:50.918Z,55.71
2019-02-11T14:39:20.483Z,55.60
2019-02-11T14:41:49.848Z,55.75
2019-02-11T14:44:19.094Z,55.91
2019-02-11T14:50:16.858Z,55.55
2019-02-11T14:52:46.192Z,55.50
2019-02-11T14:55:16.763Z,54.95
2019-02-11T14:57:46.136Z,54.90
2019-02-11T15:00:18.980Z,55.08
2019-02-11T15:02:48.366Z,55.21
2019-02-11T15:05:17.733Z,55.43
2019-02-11T15:07:47.196Z,55.26
2019-02-11T15:10:16.759Z,54.73
2019-02-11T15:12:46.312Z,55.26
2019-02-11T15:15:15.613Z,55.54
2019-02-11T15:17:44.998Z,56.00
2019-02-11T15:20:15.188Z,56.11
2019-02-11T15:22:44.598Z,56.09
2019-02-11T15:25:17.091Z,55.94
2019-02-11T15:27:46.416Z,55.78
2019-02-11T15:30:17.761Z,55.31
2019-02-11T15:32:47.037Z,55.34
2019-02-11T15:35:16.320Z,55.16
2019-02-11T15:37:45.679Z,55.62
2019-02-11T15:40:17.774Z,55.88
2019-02-11T15:42:47.108Z,55.59
2019-02-11T15:45:16.514Z,55.16
2019-02-11T15:47:46.618Z,55.21
2019-02-11T15:50:17.105Z,55.65
2019-02-11T15:52:46.381Z,56.01
2019-02-11T15:55:17.889Z,55.61
2019-02-11T15:57:47.197Z,55.36
2019-02-11T16:00:18.915Z,55.21
2019-02-11T16:02:48.414Z,55.50
2019-02-11T16:05:17.732Z,55.35
2019-02-11T16:07:46.988Z,55.72
2019-02-11T16:10:22.860Z,56.18
2019-02-11T16:12:52.139Z,55.88
2019-02-11T16:15:21.647Z,56.01
2019-02-11T16:17:51.005Z,56.33
2019-02-11T16:20:20.716Z,56.21
2019-02-11T16:22:50.100Z,56.49
2019-02-11T16:25:19.587Z,56.82
2019-02-11T16:27:48.902Z,57.04
2019-02-11T16:30:19.742Z,56.75
2019-02-11T16:33:01.890Z,56.61
2019-02-11T16:35:31.246Z,56.16
2019-02-11T16:38:00.591Z,56.16
2019-02-11T16:40:30.020Z,56.33
2019-02-11T16:42:59.395Z,56.51
2019-02-11T16:45:28.735Z,56.68
2019-02-11T16:49:00.940Z,56.72
2019-02-11T16:51:30.387Z,56.81
2019-02-11T16:53:59.683Z,56.80
2019-02-11T16:56:29.036Z,57.03
2019-02-11T16:58:58.351Z,57.07
2019-02-11T17:01:27.771Z,57.07
2019-02-11T17:03:57.246Z,57.26
2019-02-11T17:06:26.540Z,56.87
2019-02-11T17:08:55.879Z,56.87
2019-02-11T17:12:07.081Z,56.92
2019-02-11T17:14:36.483Z,57.30
2019-02-11T17:17:33.406Z,57.34
2019-02-11T17:20:02.913Z,56.80
2019-02-11T17:22:38.204Z,56.33
2019-02-11T17:25:10.414Z,56.51
2019-02-11T17:27:39.689Z,56.58
2019-02-11T17:30:12.642Z,56.73
2019-02-11T17:32:42.313Z,56.68
2019-02-11T17:35:11.785Z,56.79
2019-02-11T17:37:41.316Z,56.67
2019-02-11T17:40:12.496Z,56.90
2019-02-11T17:42:42.840Z,57.30
2019-02-11T17:45:19.807Z,57.26
2019-02-11T17:47:50.392Z,57.59
2019-02-11T17:50:20.327Z,57.35
2019-02-11T17:52:51.188Z,57.28
2019-02-11T17:55:21.647Z,57.68
2019-02-11T17:58:18.400Z,57.58
2019-02-11T18:00:52.190Z,57.66
2019-02-11T18:03:22.419Z,57.29
2019-02-11T18:05:52.351Z,57.29
2019-02-11T18:08:23.077Z,57.36
2019-02-11T18:11:22.891Z,57.51
2019-02-11T18:13:52.741Z,57.48
2019-02-11T18:16:24.466Z,57.63
2019-02-11T18:18:56.062Z,57.72
2019-02-11T18:21:28.035Z,59.02
2019-02-11T18:23:58.805Z,58.36
2019-02-11T18:26:28.731Z,58.89
2019-02-11T18:28:58.552Z,59.53
2019-02-11T18:31:28.542Z,60.21
2019-02-11T18:33:58.658Z,60.87
2019-02-11T18:36:28.633Z,61.15
2019-02-11T18:38:58.081Z,61.30
2019-02-11T18:41:27.301Z,61.52
2019-02-11T18:43:57.120Z,61.95
2019-02-11T18:46:26.799Z,62.28
2019-02-11T18:48:57.103Z,62.51
2019-02-11T18:51:27.439Z,62.92
2019-02-11T18:53:57.580Z,63.14
2019-02-11T18:59:49.389Z,63.95
2019-02-11T19:02:19.105Z,64.14
2019-02-11T19:04:51.876Z,64.48
2019-02-11T19:07:21.595Z,64.58
2019-02-11T19:09:51.589Z,64.79
2019-02-11T19:12:21.682Z,64.75
2019-02-11T19:14:52.041Z,64.93
2019-02-11T19:17:22.053Z,65.14
2019-02-11T19:19:51.641Z,65.27
2019-02-11T19:22:31.918Z,65.21
2019-02-11T19:25:02.555Z,65.25
2019-02-11T19:27:32.580Z,65.43
2019-02-11T19:30:02.280Z,65.57
2019-02-11T19:32:31.702Z,65.63
2019-02-11T19:35:02.133Z,65.34
2019-02-11T19:37:31.917Z,65.50
2019-02-11T19:40:02.021Z,65.60
2019-02-11T19:42:31.974Z,65.54
2019-02-11T19:45:01.649Z,65.82
2019-02-11T19:47:32.189Z,65.86
2019-02-11T19:50:02.303Z,66.09
2019-02-11T19:52:32.594Z,65.95
2019-02-11T19:55:03.436Z,65.90
2019-02-11T19:57:33.274Z,65.71
2019-02-11T20:00:02.961Z,65.80
2019-02-11T20:02:32.378Z,65.81
2019-02-11T20:05:04.268Z,65.88
2019-02-11T20:07:34.173Z,65.93
2019-02-11T20:10:05.067Z,66.13
2019-02-11T20:12:34.595Z,66.12
2019-02-11T20:15:04.785Z,66.25
2019-02-11T20:17:34.437Z,69.60
2019-02-11T20:20:04.178Z,69.54
2019-02-11T20:22:33.704Z,66.65
2019-02-11T20:25:03.274Z,66.21
2019-02-11T20:27:33.697Z,66.23
2019-02-11T20:30:03.921Z,66.11
2019-02-11T20:32:33.574Z,68.17
2019-02-11T20:35:03.262Z,67.68
2019-02-11T20:37:33.319Z,67.49
2019-02-11T20:40:04.055Z,67.53
2019-02-11T20:42:33.811Z,67.75
2019-02-11T20:45:03.664Z,67.20
2019-02-11T20:47:33.271Z,66.42
2019-02-11T20:50:09.039Z,66.35
2019-02-11T20:52:34.800Z,66.60
2019-02-11T20:55:05.546Z,66.80
2019-02-11T20:57:35.491Z,67.08
2019-02-11T21:00:05.585Z,67.12
2019-02-11T21:02:35.137Z,67.07
2019-02-11T21:05:28.514Z,67.33
2019-02-11T21:07:58.030Z,67.56
2019-02-11T21:10:27.425Z,67.67
2019-02-11T21:12:56.822Z,67.93
2019-02-11T21:15:26.410Z,68.11
2019-02-11T21:18:07.140Z,68.17
2019-02-11T21:24:06.478Z,68.47
2019-02-11T21:26:35.881Z,68.92
2019-02-11T21:29:05.345Z,69.23
2019-02-11T21:31:34.711Z,69.54
2019-02-11T21:34:12.978Z,69.77
2019-02-11T21:36:43.925Z,69.72
2019-02-11T21:39:15.014Z,69.46
2019-02-11T21:41:44.737Z,69.68
2019-02-11T21:44:14.402Z,69.74
2019-02-11T21:46:43.778Z,69.72
2019-02-11T21:49:13.210Z,70.00
2019-02-11T21:51:44.034Z,69.90
2019-02-11T21:54:13.326Z,69.87
2019-02-11T21:56:42.682Z,69.78
2019-02-11T21:59:13.088Z,69.79
2019-02-11T22:01:42.451Z,69.86
2019-02-11T22:04:11.646Z,70.04
2019-02-11T22:06:42.051Z,69.82
2019-02-11T22:09:11.326Z,69.79
2019-02-11T22:11:40.761Z,69.74
2019-02-11T22:14:10.292Z,69.69
2019-02-11T22:16:39.639Z,69.70
2019-02-11T22:19:08.982Z,69.67
2019-02-11T22:21:41.729Z,69.25
2019-02-11T22:24:12.499Z,69.12
2019-02-11T22:26:42.651Z,69.27
2019-02-11T22:29:11.933Z,69.10
2019-02-11T22:31:41.432Z,68.61
2019-02-11T22:34:10.729Z,68.35
2019-02-11T22:36:40.630Z,68.28
2019-02-11T22:39:10.463Z,68.22
2019-02-11T22:41:40.230Z,68.18
2019-02-11T22:44:09.566Z,68.16
2019-02-11T22:50:07.986Z,68.41
2019-02-11T22:53:28.343Z,68.55
2019-02-11T22:55:57.644Z,68.48
2019-02-11T22:58:26.961Z,68.52
2019-02-11T23:01:05.556Z,68.62
2019-02-11T23:03:36.048Z,68.85
2019-02-11T23:06:05.684Z,68.95
2019-02-11T23:08:35.028Z,68.80
2019-02-11T23:11:04.551Z,69.09
2019-02-11T23:13:33.926Z,69.48
2019-02-11T23:16:03.312Z,69.64
2019-02-11T23:18:32.625Z,69.62
2019-02-11T23:21:01.908Z,69.72
2019-02-11T23:23:31.235Z,69.32
2019-02-11T23:26:00.513Z,69.09
2019-02-11T23:28:29.834Z,68.85
2019-02-11T23:30:59.090Z,68.82
2019-02-11T23:33:28.448Z,69.11
2019-02-11T23:35:57.792Z,68.85
2019-02-11T23:38:27.431Z,69.01
2019-02-11T23:40:56.685Z,68.90
2019-02-11T23:43:26.030Z,69.10
2019-02-11T23:45:55.346Z,69.03
2019-02-11T23:48:24.604Z,69.05
2019-02-11T23:51:00.350Z,69.28
2019-02-11T23:53:24.845Z,69.46
2019-02-11T23:55:54.065Z,69.56
2019-02-11T23:58:23.633Z,69.74
